createdAt,value
2022-12-18T00:02:02.942Z,5.08
2022-12-18T00:05:05.240Z,5.06
2022-12-18T00:08:09.392Z,4.97
2022-12-18T00:11:17.292Z,4.76
2022-12-18T00:14:19.377Z,4.53
2022-12-18T00:17:21.155Z,4.54
2022-12-18T00:20:26.682Z,4.48
2022-12-18T00:23:29.216Z,4.32
2022-12-18T00:26:33.867Z,4.27
2022-12-18T00:29:37.388Z,4.10
2022-12-18T00:32:39.326Z,3.99
2022-12-18T00:35:41.263Z,3.92
2022-12-18T00:38:43.463Z,3.87
2022-12-18T00:42:04.162Z,3.74
2022-12-18T00:45:12.306Z,3.57
2022-12-18T00:48:14.997Z,3.55
2022-12-18T00:51:16.780Z,3.45
2022-12-18T00:54:18.921Z,3.43
2022-12-18T00:57:20.764Z,3.40
2022-12-18T01:00:23.319Z,3.36
2022-12-18T01:03:25.228Z,3.19
2022-12-18T01:06:27.165Z,3.17
2022-12-18T01:09:29.177Z,2.97
2022-12-18T01:12:31.016Z,2.91
2022-12-18T01:15:32.866Z,2.89
2022-12-18T01:18:34.758Z,2.80
2022-12-18T01:21:36.630Z,2.67
2022-12-18T01:24:39.478Z,2.71
2022-12-18T01:27:41.446Z,2.55
2022-12-18T01:30:43.292Z,2.63
2022-12-18T01:33:45.689Z,2.46
2022-12-18T01:36:47.584Z,2.47
2022-12-18T01:39:51.001Z,2.34
2022-12-18T01:42:53.933Z,2.28
2022-12-18T01:45:55.692Z,2.26
2022-12-18T01:49:02.438Z,2.12
2022-12-18T01:52:04.274Z,2.00
2022-12-18T01:55:08.271Z,2.05
2022-12-18T01:58:10.297Z,1.96
2022-12-18T02:01:12.708Z,1.97
2022-12-18T02:04:25.452Z,1.96
2022-12-18T02:07:59.392Z,1.87
2022-12-18T02:11:16.613Z,1.98
2022-12-18T02:14:27.241Z,2.03
2022-12-18T02:17:40.806Z,1.96
2022-12-18T02:20:50.178Z,1.96
2022-12-18T02:24:05.557Z,2.00
2022-12-18T02:27:10.546Z,1.91
2022-12-18T02:30:14.523Z,2.09
2022-12-18T02:33:16.911Z,2.08
2022-12-18T02:36:21.725Z,2.10
2022-12-18T02:39:28.008Z,2.02
2022-12-18T02:42:37.609Z,1.95
2022-12-18T02:45:58.596Z,1.93
2022-12-18T02:49:20.692Z,1.90
2022-12-18T02:52:29.917Z,1.94
2022-12-18T02:56:12.654Z,1.87
2022-12-18T02:59:25.024Z,1.74
2022-12-18T03:02:38.573Z,1.67
2022-12-18T03:05:43.145Z,1.76
2022-12-18T03:08:50.968Z,1.73
2022-12-18T03:12:21.700Z,1.59
2022-12-18T03:15:29.064Z,1.58
2022-12-18T03:19:03.793Z,1.52
2022-12-18T03:22:09.411Z,1.58
2022-12-18T03:25:22.531Z,1.66
2022-12-18T03:28:34.745Z,1.68
2022-12-18T03:31:42.895Z,1.71
2022-12-18T03:34:48.700Z,1.67
2022-12-18T03:37:53.214Z,1.54
2022-12-18T03:41:10.526Z,1.58
2022-12-18T03:44:48.677Z,1.53
2022-12-18T03:48:09.289Z,1.57
2022-12-18T03:51:32.132Z,1.44
2022-12-18T03:54:36.275Z,1.56
2022-12-18T03:57:48.249Z,1.54
2022-12-18T04:00:52.758Z,1.58
2022-12-18T04:03:57.364Z,1.59
2022-12-18T04:07:00.368Z,1.56
2022-12-18T04:10:03.960Z,1.52
2022-12-18T04:13:06.956Z,1.53
2022-12-18T04:16:10.712Z,1.50
2022-12-18T04:19:16.592Z,1.34
2022-12-18T04:22:20.252Z,1.48
2022-12-18T04:25:27.332Z,1.47
2022-12-18T04:28:40.073Z,1.46
2022-12-18T04:31:42.411Z,1.36
2022-12-18T04:34:45.401Z,1.32
2022-12-18T04:37:47.434Z,1.41
2022-12-18T04:40:50.915Z,1.39
2022-12-18T04:43:59.790Z,1.29
2022-12-18T04:47:01.637Z,1.33
2022-12-18T04:50:03.929Z,1.31
2022-12-18T04:53:05.827Z,1.31
2022-12-18T04:56:12.861Z,1.32
2022-12-18T04:59:14.737Z,1.39
2022-12-18T05:02:16.795Z,1.33
2022-12-18T05:05:19.209Z,1.40
2022-12-18T05:08:21.372Z,1.36
2022-12-18T05:11:23.280Z,1.38
2022-12-18T05:14:25.212Z,1.28
2022-12-18T05:17:28.080Z,1.20
2022-12-18T05:20:30.204Z,1.17
2022-12-18T05:23:32.033Z,1.27
2022-12-18T05:26:33.901Z,1.25
2022-12-18T05:29:35.757Z,1.31
2022-12-18T05:32:38.286Z,1.20
2022-12-18T05:35:40.204Z,1.30
2022-12-18T05:38:42.111Z,1.14
2022-12-18T05:41:43.910Z,1.20
2022-12-18T05:44:46.006Z,1.23
2022-12-18T05:47:47.843Z,1.11
2022-12-18T05:50:51.389Z,1.18
2022-12-18T05:53:53.251Z,1.23
2022-12-18T05:56:55.107Z,1.20
2022-12-18T05:59:57.208Z,1.23
2022-12-18T06:03:00.111Z,1.18
2022-12-18T06:06:02.060Z,1.15
2022-12-18T06:09:09.233Z,1.18
2022-12-18T06:12:11.761Z,1.20
2022-12-18T06:15:13.630Z,1.22
2022-12-18T06:18:16.030Z,1.20
2022-12-18T06:21:17.947Z,1.09
2022-12-18T06:24:19.760Z,1.09
2022-12-18T06:27:21.659Z,1.12
2022-12-18T06:30:23.765Z,1.03
2022-12-18T06:33:29.169Z,1.01
2022-12-18T06:36:31.135Z,1.02
2022-12-18T06:39:33.026Z,1.02
2022-12-18T06:42:34.873Z,0.95
2022-12-18T06:45:36.755Z,0.92
2022-12-18T06:48:38.779Z,0.94
2022-12-18T06:51:40.650Z,0.87
2022-12-18T06:54:42.481Z,0.81
2022-12-18T06:57:44.300Z,0.95
2022-12-18T07:00:46.168Z,0.80
2022-12-18T07:03:48.061Z,0.85
2022-12-18T07:06:49.978Z,0.89
2022-12-18T07:09:52.122Z,0.86
2022-12-18T07:12:54.024Z,0.84
2022-12-18T07:15:55.900Z,0.80
2022-12-18T07:18:57.788Z,0.82
2022-12-18T07:21:59.621Z,0.80
2022-12-18T07:25:02.481Z,0.73
2022-12-18T07:28:04.960Z,0.72
2022-12-18T07:31:07.581Z,0.73
2022-12-18T07:34:13.103Z,0.70
2022-12-18T07:37:15.019Z,0.58
2022-12-18T07:40:16.960Z,0.54
2022-12-18T07:43:18.819Z,0.51
2022-12-18T07:46:20.954Z,0.59
2022-12-18T07:49:22.880Z,0.54
2022-12-18T07:52:26.311Z,0.47
2022-12-18T07:55:28.490Z,0.58
2022-12-18T07:58:32.054Z,0.57
2022-12-18T08:01:35.286Z,0.57
2022-12-18T08:04:37.251Z,0.47
2022-12-18T08:07:39.148Z,0.44
2022-12-18T08:10:41.005Z,0.28
2022-12-18T08:13:43.222Z,0.29
2022-12-18T08:16:45.397Z,0.25
2022-12-18T08:19:47.253Z,0.17
2022-12-18T08:22:49.261Z,0.25
2022-12-18T08:25:55.057Z,0.19
2022-12-18T08:28:58.089Z,0.18
2022-12-18T08:31:59.890Z,0.12
2022-12-18T08:35:01.801Z,0.28
2022-12-18T08:38:04.433Z,0.13
2022-12-18T08:41:09.870Z,0.18
2022-12-18T08:44:30.388Z,0.22
2022-12-18T08:47:32.425Z,0.23
2022-12-18T08:50:34.368Z,0.36
2022-12-18T08:53:37.169Z,0.27
2022-12-18T08:56:39.134Z,0.34
2022-12-18T08:59:40.951Z,0.37
2022-12-18T09:02:43.052Z,0.41
2022-12-18T09:05:46.883Z,0.33
2022-12-18T09:08:48.792Z,0.21
2022-12-18T09:11:50.684Z,0.37
2022-12-18T09:14:52.651Z,0.45
2022-12-18T09:17:54.979Z,0.34
2022-12-18T09:20:56.932Z,-0.03
2022-12-18T09:23:58.948Z,0.15
2022-12-18T09:27:00.821Z,0.09
2022-12-18T09:30:03.879Z,0.01
2022-12-18T09:33:05.720Z,-0.19
2022-12-18T09:36:11.560Z,0.01
2022-12-18T09:39:13.456Z,-0.13
2022-12-18T09:42:22.093Z,-0.31
2022-12-18T09:45:25.259Z,-0.10
2022-12-18T09:48:32.574Z,0.04
2022-12-18T09:51:42.875Z,0.13
2022-12-18T09:55:14.315Z,0.07
2022-12-18T09:58:30.796Z,-0.11
2022-12-18T10:01:43.218Z,-0.19
2022-12-18T10:04:56.963Z,-0.08
2022-12-18T10:08:16.826Z,-0.05
2022-12-18T10:11:22.060Z,-0.31
2022-12-18T10:14:58.367Z,-0.33
2022-12-18T10:18:06.429Z,-0.28
2022-12-18T10:21:16.744Z,-0.35
2022-12-18T10:24:39.853Z,-0.38
2022-12-18T10:27:42.001Z,-0.50
2022-12-18T10:30:45.047Z,-0.45
2022-12-18T10:33:47.566Z,-0.41
2022-12-18T10:36:49.458Z,-0.30
2022-12-18T10:40:21.835Z,-0.38
2022-12-18T10:43:27.764Z,-0.34
2022-12-18T10:46:29.686Z,-0.39
2022-12-18T10:49:34.525Z,-0.40
2022-12-18T10:52:38.653Z,-0.54
2022-12-18T10:55:47.018Z,-0.71
2022-12-18T10:59:07.252Z,-0.75
2022-12-18T11:02:27.849Z,-0.60
2022-12-18T11:05:35.015Z,-0.63
2022-12-18T11:08:37.841Z,-0.61
2022-12-18T11:11:39.772Z,-0.72
2022-12-18T11:14:49.053Z,-0.68
2022-12-18T11:17:52.924Z,-0.75
2022-12-18T11:21:08.665Z,-0.65
2022-12-18T11:24:27.208Z,-0.70
2022-12-18T11:27:29.756Z,-0.93
2022-12-18T11:30:34.740Z,-0.93
2022-12-18T11:33:53.123Z,-0.86
2022-12-18T11:37:04.674Z,-0.97
2022-12-18T11:40:17.932Z,-0.96
2022-12-18T11:43:54.089Z,-0.96
2022-12-18T11:47:10.642Z,-1.01
2022-12-18T11:50:23.238Z,-0.96
2022-12-18T11:53:27.018Z,-0.96
2022-12-18T11:56:44.515Z,-0.99
2022-12-18T12:00:12.257Z,-0.95
2022-12-18T12:04:00.247Z,-1.17
2022-12-18T12:07:25.297Z,-1.20
2022-12-18T12:10:50.155Z,-1.16
2022-12-18T12:14:29.287Z,-1.27
2022-12-18T12:17:40.783Z,-1.22
2022-12-18T12:21:01.284Z,-1.32
2022-12-18T12:27:56.042Z,-1.46
2022-12-18T12:31:40.344Z,-1.37
2022-12-18T12:34:54.815Z,-1.32
2022-12-18T12:38:05.608Z,-1.48
2022-12-18T12:41:32.132Z,-1.51
2022-12-18T12:44:39.453Z,-1.46
2022-12-18T12:47:45.038Z,-1.39
2022-12-18T12:50:49.295Z,-1.57
2022-12-18T12:53:53.055Z,-1.63
2022-12-18T12:57:14.627Z,-1.65
2022-12-18T13:00:23.271Z,-1.69
2022-12-18T13:03:25.165Z,-1.80
2022-12-18T13:06:51.372Z,-1.75
2022-12-18T13:10:13.638Z,-1.74
2022-12-18T13:13:23.726Z,-1.78
2022-12-18T13:16:28.638Z,-1.96
2022-12-18T13:19:31.996Z,-1.93
2022-12-18T13:22:46.730Z,-1.92
2022-12-18T13:25:48.598Z,-1.84
2022-12-18T13:28:53.893Z,-1.95
2022-12-18T13:32:00.899Z,-1.90
2022-12-18T13:35:39.355Z,-1.92
2022-12-18T13:38:42.938Z,-1.94
2022-12-18T13:41:53.192Z,-1.92
2022-12-18T13:44:55.061Z,-1.90
2022-12-18T13:47:57.163Z,-1.86
2022-12-18T13:51:01.935Z,-1.90
2022-12-18T13:54:20.978Z,-1.80
2022-12-18T13:57:41.830Z,-1.83
2022-12-18T14:00:44.842Z,-2.02
2022-12-18T14:03:48.047Z,-1.98
2022-12-18T14:06:53.487Z,-2.14
2022-12-18T14:10:12.657Z,-2.13
2022-12-18T14:13:38.385Z,-1.95
2022-12-18T14:16:42.322Z,-2.08
2022-12-18T14:19:48.693Z,-2.02
2022-12-18T14:22:51.095Z,-2.10
2022-12-18T14:25:52.910Z,-2.23
2022-12-18T14:29:02.214Z,-2.18
2022-12-18T14:32:19.023Z,-2.19
2022-12-18T14:35:21.047Z,-2.24
2022-12-18T14:38:33.832Z,-2.26
2022-12-18T14:41:37.229Z,-2.44
2022-12-18T14:44:50.709Z,-2.31
2022-12-18T14:48:01.776Z,-2.32
2022-12-18T14:51:06.093Z,-2.44
2022-12-18T14:54:18.002Z,-2.34
2022-12-18T14:57:25.835Z,-2.47
2022-12-18T15:00:28.028Z,-2.48
2022-12-18T15:03:30.079Z,-2.40
2022-12-18T15:06:33.880Z,-2.59
2022-12-18T15:09:35.947Z,-2.43
2022-12-18T15:12:38.781Z,-2.48
2022-12-18T15:15:41.558Z,-2.43
2022-12-18T15:18:46.280Z,-2.45
2022-12-18T15:21:48.304Z,-2.54
2022-12-18T15:24:50.751Z,-2.50
2022-12-18T15:27:54.017Z,-2.48
2022-12-18T15:31:03.347Z,-2.47
2022-12-18T15:34:24.929Z,-2.51
2022-12-18T15:37:26.819Z,-2.54
2022-12-18T15:40:28.805Z,-2.61
2022-12-18T15:43:37.936Z,-2.54
2022-12-18T15:46:40.062Z,-2.55
2022-12-18T15:49:42.320Z,-2.66
2022-12-18T15:52:47.359Z,-2.81
2022-12-18T15:56:07.707Z,-2.79
2022-12-18T15:59:21.107Z,-2.84
2022-12-18T16:02:24.250Z,-2.75
2022-12-18T16:05:27.771Z,-2.69
2022-12-18T16:08:31.043Z,-2.66
2022-12-18T16:11:43.954Z,-2.59
2022-12-18T16:14:46.906Z,-2.60
2022-12-18T16:17:49.222Z,-2.69
2022-12-18T16:20:51.577Z,-2.72
2022-12-18T16:23:55.723Z,-2.71
2022-12-18T16:27:00.387Z,-2.82
2022-12-18T16:30:02.256Z,-2.80
2022-12-18T16:33:04.259Z,-2.91
2022-12-18T16:36:08.167Z,-2.89
2022-12-18T16:39:10.027Z,-3.01
2022-12-18T16:42:20.571Z,-3.17
2022-12-18T16:45:22.772Z,-3.21
2022-12-18T16:48:24.871Z,-2.94
2022-12-18T16:51:29.771Z,-3.09
2022-12-18T16:54:31.995Z,-2.88
2022-12-18T16:57:33.989Z,-2.92
2022-12-18T17:00:35.885Z,-2.96
2022-12-18T17:03:38.034Z,-2.92
2022-12-18T17:06:43.409Z,-2.87
2022-12-18T17:09:47.281Z,-2.85
2022-12-18T17:12:51.196Z,-2.85
2022-12-18T17:15:53.324Z,-2.91
2022-12-18T17:18:55.229Z,-3.02
2022-12-18T17:21:57.272Z,-2.89
2022-12-18T17:24:59.065Z,-2.91
2022-12-18T17:28:00.870Z,-2.89
2022-12-18T17:31:03.190Z,-2.88
2022-12-18T17:34:05.394Z,-3.04
2022-12-18T17:37:07.537Z,-2.92
2022-12-18T17:40:10.046Z,-2.98
2022-12-18T17:43:14.816Z,-2.98
2022-12-18T17:46:17.042Z,-3.02
2022-12-18T17:49:18.971Z,-2.93
2022-12-18T17:52:20.933Z,-2.98
2022-12-18T17:55:23.229Z,-3.03
2022-12-18T17:58:25.181Z,-3.10
2022-12-18T18:01:27.657Z,-3.14
2022-12-18T18:04:29.628Z,-3.09
2022-12-18T18:07:31.483Z,-3.25
2022-12-18T18:10:38.309Z,-3.13
2022-12-18T18:13:58.773Z,-3.24
2022-12-18T18:17:04.217Z,-3.14
2022-12-18T18:20:07.847Z,-3.14
2022-12-18T18:23:09.902Z,-3.15
2022-12-18T18:26:11.741Z,-3.21
2022-12-18T18:29:16.754Z,-3.06
2022-12-18T18:32:19.090Z,-3.06
2022-12-18T18:35:52.262Z,-3.23
2022-12-18T18:38:48.235Z,-3.19
2022-12-18T18:41:50.542Z,-3.18
2022-12-18T18:44:52.564Z,-3.16
2022-12-18T18:47:55.560Z,-3.28
2022-12-18T18:51:05.448Z,-3.29
2022-12-18T18:54:09.802Z,-3.22
2022-12-18T18:57:20.296Z,-3.24
2022-12-18T19:00:22.734Z,-3.26
2022-12-18T19:03:25.667Z,-3.20
2022-12-18T19:06:29.801Z,-3.12
2022-12-18T19:09:31.760Z,-3.19
2022-12-18T19:12:53.247Z,-3.13
2022-12-18T19:16:05.967Z,-3.19
2022-12-18T19:19:08.166Z,-3.22
2022-12-18T19:22:11.029Z,-3.28
2022-12-18T19:25:12.821Z,-3.10
2022-12-18T19:28:21.811Z,-3.14
2022-12-18T19:31:27.112Z,-3.20
2022-12-18T19:34:31.676Z,-3.20
2022-12-18T19:37:35.563Z,-3.15
2022-12-18T19:40:41.391Z,-3.07
2022-12-18T19:43:44.359Z,-3.10
2022-12-18T19:46:46.653Z,-3.24
2022-12-18T19:49:49.102Z,-3.11
2022-12-18T19:52:52.158Z,-3.16
2022-12-18T19:55:55.592Z,-3.38
2022-12-18T19:58:59.350Z,-3.11
2022-12-18T20:02:02.622Z,-3.25
2022-12-18T20:05:09.138Z,-3.53
2022-12-18T20:08:13.069Z,-3.24
2022-12-18T20:11:16.234Z,-3.20
2022-12-18T20:14:20.653Z,-3.21
2022-12-18T20:17:25.875Z,-3.24
2022-12-18T20:20:27.999Z,-3.18
2022-12-18T20:23:29.850Z,-3.22
2022-12-18T20:26:35.052Z,-3.22
2022-12-18T20:29:36.909Z,-3.21
2022-12-18T20:32:38.793Z,-3.22
2022-12-18T20:35:41.022Z,-3.11
2022-12-18T20:38:43.720Z,-3.08
2022-12-18T20:41:46.250Z,-3.25
2022-12-18T20:44:48.088Z,-3.27
2022-12-18T20:47:50.053Z,-3.30
2022-12-18T20:51:03.830Z,-3.34
2022-12-18T20:54:09.135Z,-3.20
2022-12-18T20:57:13.938Z,-3.23
2022-12-18T21:00:18.939Z,-3.36
2022-12-18T21:03:23.154Z,-3.34
2022-12-18T21:06:25.304Z,-3.24
2022-12-18T21:09:27.275Z,-3.22
2022-12-18T21:12:40.538Z,-3.21
2022-12-18T21:15:55.707Z,-3.22
2022-12-18T21:18:59.935Z,-3.24
2022-12-18T21:22:04.119Z,-3.39
2022-12-18T21:25:06.862Z,-3.18
2022-12-18T21:28:08.658Z,-3.10
2022-12-18T21:31:11.136Z,-3.27
2022-12-18T21:34:27.634Z,-3.23
2022-12-18T21:37:29.555Z,-3.26
2022-12-18T21:40:31.409Z,-3.17
2022-12-18T21:43:52.934Z,-3.19
2022-12-18T21:47:00.596Z,-3.10
2022-12-18T21:50:05.920Z,-3.21
2022-12-18T21:53:07.833Z,-3.32
2022-12-18T21:56:09.720Z,-3.16
2022-12-18T21:59:16.102Z,-3.18
2022-12-18T22:02:21.123Z,-3.09
2022-12-18T22:05:23.535Z,-3.09
2022-12-18T22:08:26.439Z,-3.04
2022-12-18T22:11:28.426Z,-3.09
2022-12-18T22:14:30.284Z,-3.33
2022-12-18T22:17:32.430Z,-3.16
2022-12-18T22:20:34.490Z,-3.34
2022-12-18T22:23:36.289Z,-3.33
2022-12-18T22:26:40.293Z,-3.21
2022-12-18T22:30:00.789Z,-3.25
2022-12-18T22:33:03.678Z,-3.17
2022-12-18T22:36:06.882Z,-3.17
2022-12-18T22:39:20.299Z,-3.12
2022-12-18T22:42:23.127Z,-3.05
2022-12-18T22:45:26.836Z,-3.12
2022-12-18T22:48:28.715Z,-3.17
2022-12-18T22:51:31.259Z,-3.11
2022-12-18T22:54:33.333Z,-3.23
2022-12-18T22:57:35.352Z,-3.16
2022-12-18T23:00:38.571Z,-3.20
2022-12-18T23:03:40.465Z,-3.14
2022-12-18T23:06:43.589Z,-2.99
2022-12-18T23:09:45.581Z,-2.99
2022-12-18T23:12:49.683Z,-2.95
2022-12-18T23:15:51.591Z,-2.86
2022-12-18T23:18:54.987Z,-2.84
2022-12-18T23:21:58.816Z,-2.87
2022-12-18T23:25:00.973Z,-2.88
2022-12-18T23:28:02.900Z,-2.89
2022-12-18T23:31:06.631Z,-2.90
2022-12-18T23:34:11.830Z,-2.91
2022-12-18T23:37:25.020Z,-2.84
2022-12-18T23:40:35.558Z,-2.76
2022-12-18T23:43:38.383Z,-2.78
2022-12-18T23:46:40.399Z,-2.81
2022-12-18T23:49:42.292Z,-2.91
2022-12-18T23:52:44.295Z,-2.75
2022-12-18T23:55:46.146Z,-2.74
2022-12-18T23:58:52.732Z,-2.78
